Time;durP1;ratioP1;P1;durP2;ratioP2;P2;SDS_P1;SDS_P2;PMS_P1;PMS_P2;Temp;Humidity;BMP_temperature;BMP_pressure;BME280_temperature;BME280_humidity;BME280_pressure;Samples;Min_cycle;Max_cycle;Signal;HPM_P1;HPM_P2
2023/04/30 14:24:24;;;;;;;15.27;2.55;;;18.00;95.80;;;;;;5075684;27;20410;-95
2023/04/30 14:26:50;;;;;;;3.60;1.75;;;17.80;96.80;;;;;;5075951;28;20059;-95
2023/04/30 14:29:18;;;;;;;2.13;1.38;;;17.90;96.30;;;;;;5079591;28;20024;-95
2023/04/30 14:31:46;;;;;;;1.67;0.80;;;17.90;96.40;;;;;;5076510;28;20021;-96
2023/04/30 14:34:12;;;;;;;3.83;0.90;;;18.00;95.70;;;;;;5053319;28;20025;-92
2023/04/30 14:36:38;;;;;;;2.17;1.20;;;18.00;95.50;;;;;;5068555;28;20040;-87
2023/04/30 14:39:04;;;;;;;2.00;0.80;;;18.00;95.80;;;;;;5066739;28;20467;-92
2023/04/30 14:41:36;;;;;;;2.22;1.17;;;18.10;94.80;;;;;;5042162;28;20037;-94
2023/04/30 14:44:03;;;;;;;1.35;0.90;;;18.00;93.90;;;;;;5081742;28;20013;-92
2023/04/30 14:46:29;;;;;;;1.75;1.02;;;18.00;92.90;;;;;;5085296;28;20043;-89
2023/04/30 14:48:56;;;;;;;2.90;1.30;;;18.00;93.60;;;;;;5088371;28;20097;-90
2023/04/30 14:51:21;;;;;;;1.80;1.23;;;18.10;93.80;;;;;;5072541;28;20024;-93
2023/04/30 14:53:47;;;;;;;1.80;1.20;;;18.10;94.10;;;;;;5072247;28;20124;-93
2023/04/30 14:56:13;;;;;;;2.25;1.13;;;18.10;94.00;;;;;;5059315;28;20380;-95
2023/04/30 14:58:39;;;;;;;1.63;1.00;;;18.20;94.20;;;;;;5069385;28;20487;-92
2023/04/30 15:01:05;;;;;;;2.38;1.30;;;18.20;94.30;;;;;;5070669;28;20047;-92
2023/04/30 15:03:31;;;;;;;1.90;1.05;;;18.20;92.80;;;;;;5051635;28;20033;-92
2023/04/30 15:06:00;;;;;;;2.05;0.90;;;18.30;92.60;;;;;;5059851;28;20102;-95
2023/04/30 15:08:25;;;;;;;1.33;0.90;;;18.20;92.20;;;;;;5080093;28;20123;-94
2023/04/30 15:10:51;;;;;;;2.17;0.98;;;18.30;92.70;;;;;;5071627;28;20566;-92
2023/04/30 15:13:19;;;;;;;2.70;1.00;;;18.30;92.80;;;;;;5059742;28;20005;-91
2023/04/30 15:15:45;;;;;;;2.45;1.10;;;18.40;93.00;;;;;;5151815;22;20064;-94
2023/04/30 15:18:13;;;;;;;3.08;1.58;;;18.40;92.60;;;;;;5088372;28;20423;-93
2023/04/30 15:20:41;;;;;;;2.63;1.60;;;18.50;92.90;;;;;;5069599;28;20079;-93
2023/04/30 15:23:07;;;;;;;2.35;1.00;;;18.50;92.40;;;;;;5090799;28;20029;-90
2023/04/30 15:25:33;;;;;;;1.63;0.70;;;18.50;91.90;;;;;;5091179;28;20047;-91
2023/04/30 15:27:59;;;;;;;2.55;1.00;;;18.50;91.60;;;;;;5089861;28;20035;-93
2023/04/30 15:30:25;;;;;;;2.10;1.20;;;18.50;91.30;;;;;;5076888;28;20029;-93
2023/04/30 15:32:50;;;;;;;3.20;1.40;;;18.40;91.30;;;;;;5069231;28;20024;-93
2023/04/30 15:35:16;;;;;;;3.72;1.42;;;18.50;91.50;;;;;;5067225;28;20036;-92
2023/04/30 15:37:43;;;;;;;3.05;1.45;;;18.50;92.00;;;;;;5052441;28;20036;-90
2023/04/30 15:40:13;;;;;;;3.13;1.38;;;18.60;91.60;;;;;;5060085;28;20468;-90
2023/04/30 15:42:39;;;;;;;3.33;1.77;;;18.60;91.20;;;;;;5044654;28;20082;-91
2023/04/30 15:45:09;;;;;;;2.25;1.40;;;18.50;90.90;;;;;;5060242;28;20461;-92
2023/04/30 15:47:36;;;;;;;1.60;1.10;;;18.50;91.20;;;;;;5076163;28;20020;-94
2023/04/30 15:50:02;;;;;;;2.13;1.10;;;18.50;90.90;;;;;;5076884;28;20438;-91
2023/04/30 15:52:27;;;;;;;1.75;0.90;;;18.40;89.50;;;;;;5076259;28;20111;-94
2023/04/30 15:54:53;;;;;;;1.70;0.80;;;18.30;87.90;;;;;;5058165;28;20157;-92
2023/04/30 15:57:19;;;;;;;3.85;0.68;;;18.20;87.80;;;;;;5045977;28;20033;-92
2023/04/30 15:59:44;;;;;;;1.58;0.70;;;18.10;88.30;;;;;;5039742;28;20451;-87
2023/04/30 16:02:10;;;;;;;1.25;0.50;;;18.00;88.60;;;;;;5039710;28;20473;-95
2023/04/30 16:04:36;;;;;;;6.07;2.13;;;18.10;89.50;;;;;;5055838;28;20021;-92
2023/04/30 16:07:03;;;;;;;3.70;1.33;;;18.10;88.90;;;;;;5064287;28;20029;-93
2023/04/30 16:09:30;;;;;;;1.33;0.80;;;18.10;88.40;;;;;;5058656;28;20039;-93
2023/04/30 16:11:56;;;;;;;1.48;1.17;;;18.10;89.30;;;;;;5061954;28;20051;-92
2023/04/30 16:14:21;;;;;;;4.85;1.88;;;18.10;90.00;;;;;;5075697;28;20052;-94
2023/04/30 16:16:47;;;;;;;3.28;1.58;;;18.20;90.40;;;;;;5065530;28;20049;-92
2023/04/30 16:19:13;;;;;;;2.50;1.20;;;18.20;90.30;;;;;;5085213;28;20025;-94
2023/04/30 16:21:39;;;;;;;1.85;1.27;;;18.20;90.20;;;;;;5058271;28;20028;-95
2023/04/30 16:24:06;;;;;;;3.40;1.10;;;18.30;90.00;;;;;;5075434;28;20103;-95
2023/04/30 16:26:33;;;;;;;3.95;1.40;;;18.30;89.50;;;;;;5067682;28;20111;-94
2023/04/30 16:29:00;;;;;;;3.78;1.13;;;18.30;89.40;;;;;;5074469;28;20039;-93
2023/04/30 16:31:26;;;;;;;2.70;1.05;;;18.20;90.00;;;;;;5089151;28;20054;-85
2023/04/30 16:33:52;;;;;;;2.35;1.52;;;18.20;90.20;;;;;;5081620;28;20029;-86
2023/04/30 16:36:18;;;;;;;1.95;1.20;;;18.20;90.20;;;;;;5076599;28;20013;-94
2023/04/30 16:38:45;;;;;;;2.70;1.33;;;18.20;90.50;;;;;;5079846;28;20039;-93
2023/04/30 16:41:14;;;;;;;3.38;1.42;;;18.20;90.30;;;;;;5059633;28;20037;-93
2023/04/30 16:43:40;;;;;;;2.60;1.00;;;18.20;90.40;;;;;;5068281;28;20472;-94
2023/04/30 16:46:06;;;;;;;3.35;1.00;;;18.20;90.50;;;;;;5046633;28;20283;-95
2023/04/30 16:48:31;;;;;;;1.52;0.90;;;18.20;90.70;;;;;;5055790;28;20021;-94
2023/04/30 16:50:57;;;;;;;2.20;1.10;;;18.20;90.70;;;;;;5031557;28;20029;-94
2023/04/30 16:53:23;;;;;;;2.25;1.00;;;18.10;90.20;;;;;;5040403;28;20047;-95
2023/04/30 16:55:51;;;;;;;3.45;1.10;;;18.00;89.90;;;;;;5049729;28;20414;-93
2023/04/30 16:58:17;;;;;;;3.65;1.45;;;18.00;90.30;;;;;;5061585;28;20033;-94
2023/04/30 17:00:43;;;;;;;1.42;1.00;;;18.00;89.60;;;;;;5072182;28;20036;-95
2023/04/30 17:03:09;;;;;;;2.88;1.08;;;17.90;90.00;;;;;;5057704;28;20037;-94
2023/04/30 17:05:35;;;;;;;2.22;1.10;;;17.90;90.10;;;;;;5066059;28;20032;-93
2023/04/30 17:08:01;;;;;;;3.30;1.60;;;17.80;90.00;;;;;;5070395;28;20473;-93
2023/04/30 17:10:29;;;;;;;3.22;1.50;;;17.80;90.00;;;;;;5048801;28;20529;-94
2023/04/30 17:12:58;;;;;;;2.80;1.60;;;17.70;90.20;;;;;;5071583;28;20113;-93
2023/04/30 17:15:24;;;;;;;1.88;0.90;;;17.70;90.20;;;;;;5056489;28;20041;-92
2023/04/30 17:17:50;;;;;;;2.00;1.05;;;17.70;90.10;;;;;;5036117;28;20040;-94
2023/04/30 17:20:16;;;;;;;2.65;1.10;;;17.60;89.10;;;;;;5078231;28;20028;-94
2023/04/30 17:22:42;;;;;;;1.75;1.08;;;17.60;89.10;;;;;;5064325;28;20033;-92
2023/04/30 17:25:08;;;;;;;3.30;1.63;;;17.50;89.00;;;;;;5047318;28;20449;-95
2023/04/30 17:27:34;;;;;;;2.92;1.55;;;17.50;89.40;;;;;;5063866;28;20028;-93
2023/04/30 17:30:03;;;;;;;2.15;1.15;;;17.50;89.80;;;;;;5062239;28;20025;-93
2023/04/30 17:32:28;;;;;;;2.80;1.13;;;17.50;89.30;;;;;;5068075;28;20055;-94
2023/04/30 17:34:54;;;;;;;2.47;1.20;;;17.50;89.80;;;;;;5056559;28;20028;-93
2023/04/30 17:37:20;;;;;;;2.45;1.10;;;17.50;89.80;;;;;;5064077;28;20028;-92
2023/04/30 17:39:45;;;;;;;4.55;1.25;;;17.40;90.10;;;;;;5074075;28;20086;-93
2023/04/30 17:42:12;;;;;;;2.05;1.23;;;17.40;90.10;;;;;;5064791;28;20021;-93
2023/04/30 17:44:38;;;;;;;2.72;1.25;;;17.40;90.40;;;;;;5063959;28;20025;-93
2023/04/30 17:47:05;;;;;;;3.78;1.10;;;17.40;90.30;;;;;;5061093;28;20028;-93
2023/04/30 17:49:31;;;;;;;3.67;1.08;;;17.40;90.20;;;;;;5089204;28;20035;-94
2023/04/30 17:51:58;;;;;;;2.85;1.00;;;17.40;90.30;;;;;;5063350;28;20029;-94
2023/04/30 17:54:24;;;;;;;2.08;0.95;;;17.40;90.40;;;;;;5044134;28;20029;-93
2023/04/30 17:56:50;;;;;;;3.58;1.13;;;17.30;90.50;;;;;;5060902;28;20070;-95
2023/04/30 17:59:16;;;;;;;3.05;1.20;;;17.40;90.40;;;;;;5059657;28;20052;-93
2023/04/30 18:01:42;;;;;;;1.63;0.82;;;17.30;90.40;;;;;;5082493;28;20473;-94
2023/04/30 18:04:08;;;;;;;3.65;1.45;;;17.40;90.60;;;;;;5082479;28;20039;-93
2023/04/30 18:06:34;;;;;;;2.88;0.98;;;17.30;90.30;;;;;;5053963;28;20116;-91
2023/04/30 18:09:00;;;;;;;2.83;1.20;;;17.30;90.40;;;;;;5069117;28;20021;-94
2023/04/30 18:11:47;;;;;;;3.40;1.20;;;17.20;90.30;;;;;;5068774;28;20025;-95
2023/04/30 18:14:12;;;;;;;2.60;0.98;;;17.20;90.60;;;;;;5062135;28;20057;-94
2023/04/30 18:16:38;;;;;;;1.50;1.13;;;17.20;90.70;;;;;;5064782;28;20049;-86
2023/04/30 18:19:04;;;;;;;5.88;1.77;;;17.10;90.70;;;;;;5069110;28;20017;-86
2023/04/30 18:21:30;;;;;;;2.00;1.20;;;17.10;90.90;;;;;;5072936;28;20037;-91
2023/04/30 18:23:56;;;;;;;3.22;1.25;;;17.00;91.00;;;;;;5080755;28;20056;-86
2023/04/30 18:26:23;;;;;;;2.15;1.10;;;17.00;91.00;;;;;;5090523;28;20034;-94
2023/04/30 18:28:50;;;;;;;3.78;1.35;;;17.00;91.20;;;;;;5062062;28;20437;-94
2023/04/30 18:31:16;;;;;;;2.70;1.25;;;17.00;91.20;;;;;;5062123;28;20029;-95
2023/04/30 18:33:42;;;;;;;1.20;1.00;;;16.90;91.20;;;;;;5062711;28;20086;-93
2023/04/30 18:36:08;;;;;;;2.05;1.13;;;16.90;91.60;;;;;;5062646;28;20111;-95
2023/04/30 18:38:34;;;;;;;3.97;1.10;;;16.90;91.40;;;;;;5080140;28;20092;-95
2023/04/30 18:41:00;;;;;;;2.42;1.38;;;16.80;91.40;;;;;;5084923;28;20070;-87
2023/04/30 18:43:26;;;;;;;7.18;1.63;;;16.80;91.40;;;;;;5085867;28;20040;-93
2023/04/30 18:45:52;;;;;;;3.70;1.20;;;16.70;91.40;;;;;;5066407;28;20013;-94
2023/04/30 18:48:19;;;;;;;2.55;1.30;;;16.70;91.50;;;;;;5072103;28;20366;-94
2023/04/30 18:50:48;;;;;;;3.78;1.40;;;16.60;91.50;;;;;;5066607;28;20055;-95
2023/04/30 18:53:16;;;;;;;2.65;1.33;;;16.60;91.60;;;;;;5061743;28;20029;-94
2023/04/30 18:55:43;;;;;;;2.00;1.08;;;16.50;91.70;;;;;;5057979;28;20025;-94
2023/04/30 18:58:09;;;;;;;2.60;1.02;;;16.50;91.80;;;;;;5065720;28;20449;-94
2023/04/30 19:00:35;;;;;;;3.25;1.50;;;16.50;91.90;;;;;;5067918;28;20044;-94
2023/04/30 19:03:00;;;;;;;3.83;1.40;;;16.50;92.00;;;;;;5088002;28;20162;-93
2023/04/30 19:05:26;;;;;;;2.65;1.35;;;16.40;92.10;;;;;;5064601;28;20025;-90
2023/04/30 19:07:52;;;;;;;3.08;1.40;;;16.40;92.20;;;;;;5039974;28;20464;-94
2023/04/30 19:10:17;;;;;;;3.80;1.20;;;16.40;92.20;;;;;;5067463;28;20024;-94
2023/04/30 19:12:53;;;;;;;;;;;;;;;;;;;;;
2023/04/30 19:15:19;;;;;;;3.97;1.20;;;16.30;92.30;;;;;;5074275;28;20033;-90
2023/04/30 19:17:48;;;;;;;2.60;1.60;;;16.20;92.40;;;;;;5083992;28;20093;-89
2023/04/30 19:20:13;;;;;;;3.42;1.55;;;16.20;92.60;;;;;;5062527;28;20013;-90
2023/04/30 19:22:40;;;;;;;2.85;1.48;;;16.20;92.50;;;;;;5056729;28;20146;-89
2023/04/30 19:25:06;;;;;;;3.17;1.30;;;16.20;92.60;;;;;;5050028;28;20059;-90
2023/04/30 19:27:31;;;;;;;2.50;1.50;;;16.10;92.70;;;;;;5058334;28;20056;-89
2023/04/30 19:29:57;;;;;;;3.88;1.50;;;16.10;92.80;;;;;;5090478;28;20441;-89
2023/04/30 19:32:23;;;;;;;3.15;1.73;;;16.00;92.80;;;;;;5064606;28;20515;-91
2023/04/30 19:34:49;;;;;;;3.78;1.65;;;16.00;92.90;;;;;;5087169;28;20024;-89
2023/04/30 19:37:14;;;;;;;4.40;1.65;;;16.00;93.00;;;;;;5066453;28;20464;-89
2023/04/30 19:39:40;;;;;;;2.92;1.70;;;15.90;93.00;;;;;;5059137;28;20017;-89
2023/04/30 19:42:10;;;;;;;1.83;1.40;;;15.90;93.10;;;;;;5053651;28;20036;-90
2023/04/30 19:44:35;;;;;;;3.17;1.75;;;15.80;93.10;;;;;;5049995;28;20470;-90
2023/04/30 19:47:02;;;;;;;1.73;1.60;;;15.80;93.30;;;;;;5044558;28;20052;-91
2023/04/30 19:49:28;;;;;;;2.90;1.77;;;15.70;93.30;;;;;;5063946;28;20121;-91
2023/04/30 19:51:54;;;;;;;3.40;1.67;;;15.70;93.30;;;;;;5049769;28;20052;-89
2023/04/30 19:54:19;;;;;;;5.18;1.80;;;15.70;93.40;;;;;;5053638;28;20044;-91
2023/04/30 19:56:45;;;;;;;2.58;1.45;;;15.70;93.40;;;;;;5082668;28;20036;-90
2023/04/30 19:59:12;;;;;;;4.55;1.52;;;15.60;93.50;;;;;;5064181;28;20075;-89
2023/04/30 20:01:38;;;;;;;2.97;1.50;;;15.60;93.50;;;;;;5086388;28;20084;-90
2023/04/30 20:04:04;;;;;;;2.53;1.40;;;15.60;93.60;;;;;;5085996;28;20021;-89
2023/04/30 20:06:30;;;;;;;2.40;1.55;;;15.60;93.90;;;;;;5051964;28;20106;-90
2023/04/30 20:08:58;;;;;;;3.38;1.60;;;15.50;93.70;;;;;;5077882;28;20024;-89
2023/04/30 20:11:24;;;;;;;2.38;1.48;;;15.50;93.80;;;;;;5048207;28;20033;-90
2023/04/30 20:13:50;;;;;;;4.95;1.90;;;15.40;93.80;;;;;;5039672;28;20068;-89
2023/04/30 20:16:18;;;;;;;2.80;1.67;;;15.40;93.90;;;;;;5022191;28;20045;-88
2023/04/30 20:18:44;;;;;;;2.92;1.83;;;15.40;93.90;;;;;;5072652;28;20083;-89
2023/04/30 20:21:13;;;;;;;4.10;1.90;;;15.30;93.90;;;;;;5056591;28;20461;-89
2023/04/30 20:23:39;;;;;;;3.60;1.77;;;15.30;94.00;;;;;;5071948;28;20029;-89
2023/04/30 20:26:07;;;;;;;3.05;1.70;;;15.30;94.10;;;;;;5038602;28;20453;-89
2023/04/30 20:28:33;;;;;;;3.67;2.03;;;15.20;94.10;;;;;;5054880;28;20021;-89
2023/04/30 20:30:58;;;;;;;3.80;2.00;;;15.20;94.20;;;;;;5063529;28;20060;-88
2023/04/30 20:33:25;;;;;;;5.35;1.52;;;15.20;94.30;;;;;;5058074;28;20076;-89
2023/04/30 20:35:51;;;;;;;3.10;1.63;;;15.20;94.40;;;;;;5075126;28;20021;-90
2023/04/30 20:38:17;;;;;;;3.42;1.67;;;15.10;94.40;;;;;;5061638;28;20032;-90
2023/04/30 20:40:44;;;;;;;3.10;1.73;;;15.10;94.40;;;;;;5071399;28;20153;-89
2023/04/30 20:43:11;;;;;;;3.30;1.88;;;15.10;94.40;;;;;;5057285;28;20118;-89
2023/04/30 20:45:37;;;;;;;3.15;1.65;;;15.10;94.50;;;;;;5054852;28;20380;-88
2023/04/30 20:48:04;;;;;;;5.50;2.00;;;15.00;94.50;;;;;;5054956;28;20380;-89
2023/04/30 20:50:30;;;;;;;2.38;1.77;;;15.00;94.50;;;;;;5054839;28;20032;-88
2023/04/30 20:52:55;;;;;;;3.58;1.90;;;14.90;94.60;;;;;;5088398;28;20037;-88
2023/04/30 20:55:21;;;;;;;3.60;2.00;;;14.90;94.70;;;;;;5074462;28;20464;-89
2023/04/30 20:57:48;;;;;;;3.65;1.88;;;14.90;94.80;;;;;;5091512;28;20074;-89
2023/04/30 21:00:13;;;;;;;3.13;1.77;;;14.90;94.80;;;;;;5074660;28;20033;-90
2023/04/30 21:02:39;;;;;;;4.00;1.75;;;14.90;94.90;;;;;;5057516;28;20442;-90
2023/04/30 21:05:06;;;;;;;2.70;1.92;;;14.80;94.90;;;;;;5046426;28;20033;-89
2023/04/30 21:07:33;;;;;;;3.42;2.38;;;14.70;94.90;;;;;;5039983;28;20033;-89
2023/04/30 21:10:00;;;;;;;6.47;2.60;;;14.70;95.00;;;;;;5064755;28;20108;-89
2023/04/30 21:12:26;;;;;;;4.82;2.75;;;14.60;95.00;;;;;;5074151;28;20036;-88
2023/04/30 21:14:54;;;;;;;7.35;3.10;;;14.60;95.10;;;;;;5066812;28;20020;-89
2023/04/30 21:17:20;;;;;;;5.20;3.08;;;14.60;95.10;;;;;;5073907;28;20061;-88
2023/04/30 21:19:45;;;;;;;4.63;3.33;;;14.50;95.20;;;;;;5040925;28;20039;-89
2023/04/30 21:22:11;;;;;;;6.15;3.10;;;14.50;95.20;;;;;;5073979;28;20036;-89
2023/04/30 21:24:38;;;;;;;5.53;3.60;;;14.50;95.20;;;;;;5074173;28;20032;-89
2023/04/30 21:27:04;;;;;;;8.43;3.65;;;14.50;95.10;;;;;;5073875;28;20031;-89
2023/04/30 21:29:30;;;;;;;5.63;3.47;;;14.50;95.20;;;;;;5073976;28;20032;-89
2023/04/30 21:31:57;;;;;;;6.03;3.97;;;14.40;95.20;;;;;;5073738;28;20025;-89
2023/04/30 21:34:23;;;;;;;8.52;4.00;;;14.40;95.20;;;;;;5074288;28;20067;-89
2023/04/30 21:36:50;;;;;;;6.82;3.88;;;14.40;95.20;;;;;;5074708;28;20025;-90
2023/04/30 21:39:16;;;;;;;6.00;3.47;;;14.30;95.30;;;;;;5076240;28;20025;-89
2023/04/30 21:41:42;;;;;;;6.28;4.15;;;14.30;95.30;;;;;;5066580;28;20095;-90
2023/04/30 21:44:08;;;;;;;5.38;3.55;;;14.30;95.30;;;;;;5077440;28;20047;-88
2023/04/30 21:46:33;;;;;;;6.72;3.85;;;14.30;95.30;;;;;;5078275;28;20009;-88
2023/04/30 21:49:01;;;;;;;4.95;3.58;;;14.30;95.30;;;;;;5062473;28;20032;-87
2023/04/30 21:51:27;;;;;;;9.13;3.72;;;14.30;95.30;;;;;;5060721;28;20047;-89
2023/04/30 21:53:53;;;;;;;6.07;3.60;;;14.20;95.20;;;;;;5077824;28;20040;-88
2023/04/30 21:56:18;;;;;;;6.38;3.50;;;14.20;95.20;;;;;;5058670;28;20032;-90
2023/04/30 21:58:44;;;;;;;4.95;3.38;;;14.10;95.20;;;;;;5037363;28;20442;-89
2023/04/30 22:01:10;;;;;;;6.50;3.13;;;14.10;95.30;;;;;;5061004;28;20028;-89
2023/04/30 22:03:36;;;;;;;6.95;3.10;;;14.10;95.40;;;;;;5045940;28;20035;-88
2023/04/30 22:06:02;;;;;;;4.00;2.80;;;14.00;95.40;;;;;;5037361;28;20171;-89
2023/04/30 22:08:28;;;;;;;6.90;3.50;;;14.10;95.40;;;;;;5045652;28;20029;-89
2023/04/30 22:10:58;;;;;;;6.38;3.50;;;14.10;95.40;;;;;;5053474;28;20444;-89
2023/04/30 22:13:25;;;;;;;5.50;3.35;;;14.00;95.40;;;;;;5036254;28;20043;-86
2023/04/30 22:15:51;;;;;;;6.60;3.20;;;14.00;95.40;;;;;;5074047;28;20037;-89
2023/04/30 22:18:17;;;;;;;4.82;3.40;;;14.00;95.70;;;;;;5070106;28;20457;-89
2023/04/30 22:20:43;;;;;;;7.00;2.88;;;13.90;95.50;;;;;;5069369;28;20041;-88
2023/04/30 22:23:08;;;;;;;4.05;2.80;;;13.90;95.60;;;;;;5053471;28;20061;-88
2023/04/30 22:25:34;;;;;;;6.32;3.40;;;13.80;95.60;;;;;;5053968;28;20029;-89
2023/04/30 22:28:00;;;;;;;6.05;2.85;;;13.90;95.70;;;;;;5054085;28;20021;-88
2023/04/30 22:30:25;;;;;;;7.75;3.45;;;13.80;95.70;;;;;;5072270;28;20028;-84
2023/04/30 22:32:55;;;;;;;5.28;3.40;;;13.80;95.70;;;;;;5073070;28;20047;-90
2023/04/30 22:35:22;;;;;;;3.88;2.80;;;13.80;95.80;;;;;;5074234;28;20024;-88
2023/04/30 22:37:47;;;;;;;5.53;3.05;;;13.70;95.80;;;;;;5072889;28;20024;-89
2023/04/30 22:40:17;;;;;;;5.30;2.80;;;13.70;95.80;;;;;;5074092;28;20017;-88
2023/04/30 22:42:42;;;;;;;4.45;2.75;;;13.70;95.80;;;;;;5059062;28;20037;-89
2023/04/30 22:45:09;;;;;;;5.05;2.83;;;13.60;95.80;;;;;;5055527;28;20477;-89
2023/04/30 22:47:35;;;;;;;5.38;2.70;;;13.60;95.80;;;;;;5087159;28;20048;-88
2023/04/30 22:50:02;;;;;;;6.40;2.78;;;13.60;95.90;;;;;;5078318;28;20107;-89
2023/04/30 22:52:28;;;;;;;3.63;2.35;;;13.60;95.90;;;;;;5076758;28;20032;-83
2023/04/30 22:54:54;;;;;;;5.50;3.00;;;13.60;96.00;;;;;;5076932;28;20081;-88
2023/04/30 22:57:21;;;;;;;3.53;2.25;;;13.50;96.00;;;;;;5058077;28;20028;-89
2023/04/30 22:59:47;;;;;;;5.65;2.92;;;13.50;96.00;;;;;;5040078;28;20028;-89
2023/04/30 23:02:13;;;;;;;6.82;3.28;;;13.50;96.10;;;;;;5057272;28;20033;-88
2023/04/30 23:04:39;;;;;;;5.25;2.90;;;13.40;96.10;;;;;;5056911;28;20029;-88
2023/04/30 23:07:05;;;;;;;7.28;3.38;;;13.40;96.10;;;;;;5063999;28;20526;-89
2023/04/30 23:09:30;;;;;;;3.88;2.47;;;13.40;96.20;;;;;;5023896;28;20083;-88
2023/04/30 23:11:56;;;;;;;5.45;2.80;;;13.30;96.20;;;;;;5024544;28;20059;-89
2023/04/30 23:14:21;;;;;;;7.80;3.08;;;13.30;96.20;;;;;;5033249;28;20033;-88
2023/04/30 23:16:47;;;;;;;7.05;2.75;;;13.30;96.20;;;;;;5040368;28;20496;-88
2023/04/30 23:19:13;;;;;;;4.07;2.70;;;13.30;96.30;;;;;;5057433;28;20044;-88
2023/04/30 23:21:39;;;;;;;5.78;3.17;;;13.30;96.30;;;;;;5040477;28;20036;-88
2023/04/30 23:24:04;;;;;;;4.78;2.75;;;13.20;96.30;;;;;;5087104;28;20036;-88
2023/04/30 23:26:30;;;;;;;5.93;2.80;;;13.20;96.30;;;;;;5100492;28;20021;-88
2023/04/30 23:28:56;;;;;;;4.57;3.00;;;13.20;96.30;;;;;;5100079;28;20032;-89
2023/04/30 23:31:22;;;;;;;4.28;2.92;;;13.20;96.30;;;;;;5075500;28;20162;-88
2023/04/30 23:33:48;;;;;;;6.32;3.10;;;13.20;96.20;;;;;;5043546;28;20108;-88
2023/04/30 23:36:13;;;;;;;4.63;2.85;;;13.20;96.30;;;;;;5076602;28;20033;-89
2023/04/30 23:38:41;;;;;;;4.97;2.83;;;13.10;96.30;;;;;;5075536;28;20431;-88
2023/04/30 23:41:07;;;;;;;4.15;2.78;;;13.10;96.30;;;;;;5043620;28;20029;-89
2023/04/30 23:43:33;;;;;;;5.13;3.08;;;13.10;96.40;;;;;;5055977;28;20044;-83
2023/04/30 23:45:59;;;;;;;5.53;3.00;;;13.10;96.40;;;;;;5056041;28;20052;-89
2023/04/30 23:48:24;;;;;;;4.60;2.67;;;13.10;96.40;;;;;;5058911;28;20171;-88
2023/04/30 23:51:01;;;;;;;6.63;3.22;;;13.00;96.40;;;;;;5042342;28;20029;-89
2023/04/30 23:53:27;;;;;;;5.53;3.22;;;12.90;96.40;;;;;;5077054;28;20037;-88
2023/04/30 23:55:57;;;;;;;5.63;3.15;;;12.90;96.50;;;;;;5074883;28;20070;-88
2023/04/30 23:58:24;;;;;;;5.17;3.13;;;12.80;96.60;;;;;;5076815;28;20430;-89
